sensor_id;sensor_type;location;lat;lon;timestamp;P1;durP1;ratioP1;P2;durP2;ratioP2
16450;SDS011;12243;42.708;23.310;2023-05-24T00:00:02;6.47;;;5.87;;
16450;SDS011;12243;42.708;23.310;2023-05-24T00:02:33;7.27;;;5.17;;
16450;SDS011;12243;42.708;23.310;2023-05-24T00:05:02;6.27;;;5.67;;
16450;SDS011;12243;42.708;23.310;2023-05-24T00:07:29;5.97;;;5.37;;
16450;SDS011;12243;42.708;23.310;2023-05-24T00:09:56;6.03;;;5.50;;
16450;SDS011;12243;42.708;23.310;2023-05-24T00:12:24;9.60;;;6.07;;
16450;SDS011;12243;42.708;23.310;2023-05-24T00:14:51;7.43;;;5.63;;
16450;SDS011;12243;42.708;23.310;2023-05-24T00:17:18;5.37;;;4.97;;
16450;SDS011;12243;42.708;23.310;2023-05-24T00:19:45;7.07;;;5.37;;
16450;SDS011;12243;42.708;23.310;2023-05-24T00:22:12;5.63;;;5.00;;
16450;SDS011;12243;42.708;23.310;2023-05-24T00:24:39;5.73;;;5.23;;
16450;SDS011;12243;42.708;23.310;2023-05-24T00:27:06;7.97;;;6.07;;
16450;SDS011;12243;42.708;23.310;2023-05-24T00:29:35;7.33;;;5.27;;
16450;SDS011;12243;42.708;23.310;2023-05-24T00:32:01;6.17;;;5.57;;
16450;SDS011;12243;42.708;23.310;2023-05-24T00:34:28;6.33;;;5.70;;
16450;SDS011;12243;42.708;23.310;2023-05-24T00:36:55;6.97;;;5.87;;
16450;SDS011;12243;42.708;23.310;2023-05-24T00:39:22;9.40;;;5.87;;
16450;SDS011;12243;42.708;23.310;2023-05-24T00:41:49;6.97;;;6.30;;
16450;SDS011;12243;42.708;23.310;2023-05-24T00:44:16;8.30;;;6.03;;
16450;SDS011;12243;42.708;23.310;2023-05-24T00:46:45;5.60;;;5.20;;
16450;SDS011;12243;42.708;23.310;2023-05-24T00:49:14;5.80;;;5.30;;
16450;SDS011;12243;42.708;23.310;2023-05-24T00:51:41;6.73;;;5.33;;
16450;SDS011;12243;42.708;23.310;2023-05-24T00:54:07;6.70;;;5.37;;
16450;SDS011;12243;42.708;23.310;2023-05-24T00:56:34;6.63;;;5.97;;
16450;SDS011;12243;42.708;23.310;2023-05-24T00:59:01;8.27;;;6.77;;
16450;SDS011;12243;42.708;23.310;2023-05-24T01:01:28;7.07;;;6.37;;
16450;SDS011;12243;42.708;23.310;2023-05-24T01:03:57;6.57;;;5.63;;
16450;SDS011;12243;42.708;23.310;2023-05-24T01:06:24;6.97;;;6.27;;
16450;SDS011;12243;42.708;23.310;2023-05-24T01:09:05;8.43;;;6.10;;
16450;SDS011;12243;42.708;23.310;2023-05-24T01:11:43;7.20;;;6.50;;
16450;SDS011;12243;42.708;23.310;2023-05-24T01:14:17;7.90;;;6.20;;
16450;SDS011;12243;42.708;23.310;2023-05-24T01:16:52;6.83;;;5.70;;
16450;SDS011;12243;42.708;23.310;2023-05-24T01:22:36;6.40;;;5.77;;
16450;SDS011;12243;42.708;23.310;2023-05-24T01:25:16;5.97;;;5.23;;
16450;SDS011;12243;42.708;23.310;2023-05-24T01:27:50;6.23;;;5.63;;
16450;SDS011;12243;42.708;23.310;2023-05-24T01:30:17;5.33;;;4.83;;
16450;SDS011;12243;42.708;23.310;2023-05-24T01:32:45;6.03;;;5.10;;
16450;SDS011;12243;42.708;23.310;2023-05-24T01:35:12;7.23;;;5.10;;
16450;SDS011;12243;42.708;23.310;2023-05-24T01:37:38;5.53;;;5.03;;
16450;SDS011;12243;42.708;23.310;2023-05-24T01:40:06;5.67;;;5.17;;
16450;SDS011;12243;42.708;23.310;2023-05-24T01:42:35;5.63;;;4.97;;
16450;SDS011;12243;42.708;23.310;2023-05-24T01:45:13;5.27;;;4.87;;
16450;SDS011;12243;42.708;23.310;2023-05-24T01:47:50;5.47;;;4.97;;
16450;SDS011;12243;42.708;23.310;2023-05-24T01:50:28;5.17;;;4.60;;
16450;SDS011;12243;42.708;23.310;2023-05-24T01:52:59;7.10;;;5.57;;
16450;SDS011;12243;42.708;23.310;2023-05-24T01:55:30;5.97;;;5.10;;
16450;SDS011;12243;42.708;23.310;2023-05-24T01:57:59;5.73;;;5.13;;
16450;SDS011;12243;42.708;23.310;2023-05-24T02:00:29;5.30;;;4.90;;
16450;SDS011;12243;42.708;23.310;2023-05-24T02:02:58;5.70;;;5.20;;
16450;SDS011;12243;42.708;23.310;2023-05-24T02:05:27;5.60;;;5.10;;
16450;SDS011;12243;42.708;23.310;2023-05-24T02:07:54;5.77;;;5.17;;
16450;SDS011;12243;42.708;23.310;2023-05-24T02:10:22;5.77;;;5.23;;
16450;SDS011;12243;42.708;23.310;2023-05-24T02:12:49;6.30;;;5.77;;
16450;SDS011;12243;42.708;23.310;2023-05-24T02:15:16;9.87;;;5.83;;
16450;SDS011;12243;42.708;23.310;2023-05-24T02:17:44;6.17;;;5.57;;
16450;SDS011;12243;42.708;23.310;2023-05-24T02:20:12;5.73;;;5.30;;
16450;SDS011;12243;42.708;23.310;2023-05-24T02:22:41;6.70;;;6.03;;
16450;SDS011;12243;42.708;23.310;2023-05-24T02:25:08;6.80;;;6.10;;
16450;SDS011;12243;42.708;23.310;2023-05-24T02:27:35;6.30;;;5.70;;
16450;SDS011;12243;42.708;23.310;2023-05-24T02:30:02;11.27;;;6.23;;
16450;SDS011;12243;42.708;23.310;2023-05-24T02:32:30;6.80;;;5.83;;
16450;SDS011;12243;42.708;23.310;2023-05-24T02:34:58;7.60;;;5.87;;
16450;SDS011;12243;42.708;23.310;2023-05-24T02:37:26;7.77;;;5.23;;
16450;SDS011;12243;42.708;23.310;2023-05-24T02:39:52;5.90;;;5.40;;
16450;SDS011;12243;42.708;23.310;2023-05-24T02:42:19;6.57;;;5.60;;
16450;SDS011;12243;42.708;23.310;2023-05-24T02:44:46;6.37;;;5.77;;
16450;SDS011;12243;42.708;23.310;2023-05-24T02:47:16;6.33;;;5.53;;
16450;SDS011;12243;42.708;23.310;2023-05-24T02:49:43;5.87;;;5.37;;
16450;SDS011;12243;42.708;23.310;2023-05-24T02:52:11;6.73;;;5.67;;
16450;SDS011;12243;42.708;23.310;2023-05-24T02:54:40;7.27;;;5.90;;
16450;SDS011;12243;42.708;23.310;2023-05-24T02:57:07;5.93;;;5.37;;
16450;SDS011;12243;42.708;23.310;2023-05-24T02:59:33;5.37;;;4.73;;
16450;SDS011;12243;42.708;23.310;2023-05-24T03:02:00;7.47;;;5.47;;
16450;SDS011;12243;42.708;23.310;2023-05-24T03:04:27;7.90;;;5.70;;
16450;SDS011;12243;42.708;23.310;2023-05-24T03:06:54;5.93;;;5.23;;
16450;SDS011;12243;42.708;23.310;2023-05-24T03:09:23;5.83;;;5.33;;
16450;SDS011;12243;42.708;23.310;2023-05-24T03:11:49;8.07;;;5.30;;
16450;SDS011;12243;42.708;23.310;2023-05-24T03:14:18;6.63;;;6.00;;
16450;SDS011;12243;42.708;23.310;2023-05-24T03:16:46;7.03;;;6.27;;
16450;SDS011;12243;42.708;23.310;2023-05-24T03:19:13;6.37;;;5.77;;
16450;SDS011;12243;42.708;23.310;2023-05-24T03:21:41;6.10;;;5.50;;
16450;SDS011;12243;42.708;23.310;2023-05-24T03:24:08;8.13;;;5.97;;
16450;SDS011;12243;42.708;23.310;2023-05-24T03:26:38;6.73;;;6.03;;
16450;SDS011;12243;42.708;23.310;2023-05-24T03:29:06;8.63;;;5.90;;
16450;SDS011;12243;42.708;23.310;2023-05-24T03:31:37;6.80;;;6.13;;
16450;SDS011;12243;42.708;23.310;2023-05-24T03:34:04;6.40;;;5.80;;
16450;SDS011;12243;42.708;23.310;2023-05-24T03:36:33;6.73;;;5.50;;
16450;SDS011;12243;42.708;23.310;2023-05-24T03:39:02;7.13;;;6.37;;
16450;SDS011;12243;42.708;23.310;2023-05-24T03:41:34;7.43;;;6.50;;
16450;SDS011;12243;42.708;23.310;2023-05-24T03:44:03;10.50;;;6.87;;
16450;SDS011;12243;42.708;23.310;2023-05-24T03:46:30;6.33;;;5.83;;
16450;SDS011;12243;42.708;23.310;2023-05-24T03:48:59;5.93;;;5.37;;
16450;SDS011;12243;42.708;23.310;2023-05-24T03:51:26;6.30;;;5.80;;
16450;SDS011;12243;42.708;23.310;2023-05-24T03:53:54;7.37;;;5.73;;
16450;SDS011;12243;42.708;23.310;2023-05-24T03:56:21;5.17;;;4.70;;
16450;SDS011;12243;42.708;23.310;2023-05-24T03:58:48;7.40;;;4.77;;
16450;SDS011;12243;42.708;23.310;2023-05-24T04:01:17;5.17;;;4.73;;
16450;SDS011;12243;42.708;23.310;2023-05-24T04:03:45;5.47;;;4.83;;
16450;SDS011;12243;42.708;23.310;2023-05-24T04:06:12;5.20;;;4.73;;
16450;SDS011;12243;42.708;23.310;2023-05-24T04:08:39;6.43;;;4.90;;
16450;SDS011;12243;42.708;23.310;2023-05-24T04:11:07;4.77;;;4.33;;
16450;SDS011;12243;42.708;23.310;2023-05-24T04:13:36;6.23;;;4.80;;
16450;SDS011;12243;42.708;23.310;2023-05-24T04:16:03;8.67;;;4.73;;
16450;SDS011;12243;42.708;23.310;2023-05-24T04:18:31;5.90;;;4.67;;
16450;SDS011;12243;42.708;23.310;2023-05-24T04:20:58;5.60;;;5.07;;
16450;SDS011;12243;42.708;23.310;2023-05-24T04:23:24;5.57;;;4.73;;
16450;SDS011;12243;42.708;23.310;2023-05-24T04:25:51;6.63;;;4.90;;
16450;SDS011;12243;42.708;23.310;2023-05-24T04:28:18;5.30;;;4.90;;
16450;SDS011;12243;42.708;23.310;2023-05-24T04:30:46;5.07;;;4.68;;
16450;SDS011;12243;42.708;23.310;2023-05-24T04:33:13;4.72;;;4.10;;
16450;SDS011;12243;42.708;23.310;2023-05-24T04:35:42;5.15;;;4.60;;
16450;SDS011;12243;42.708;23.310;2023-05-24T04:38:09;7.75;;;4.68;;
16450;SDS011;12243;42.708;23.310;2023-05-24T04:40:37;5.38;;;4.95;;
16450;SDS011;12243;42.708;23.310;2023-05-24T04:43:04;5.38;;;4.90;;
16450;SDS011;12243;42.708;23.310;2023-05-24T04:45:31;8.02;;;5.50;;
16450;SDS011;12243;42.708;23.310;2023-05-24T04:47:58;5.88;;;4.57;;
16450;SDS011;12243;42.708;23.310;2023-05-24T04:50:25;6.18;;;5.55;;
16450;SDS011;12243;42.708;23.310;2023-05-24T04:52:55;5.55;;;5.03;;
16450;SDS011;12243;42.708;23.310;2023-05-24T04:55:22;6.10;;;5.50;;
16450;SDS011;12243;42.708;23.310;2023-05-24T04:57:48;6.32;;;5.72;;
16450;SDS011;12243;42.708;23.310;2023-05-24T05:00:16;6.85;;;5.68;;
16450;SDS011;12243;42.708;23.310;2023-05-24T05:02:43;6.22;;;5.60;;
16450;SDS011;12243;42.708;23.310;2023-05-24T05:05:10;7.30;;;6.50;;
16450;SDS011;12243;42.708;23.310;2023-05-24T05:07:37;9.25;;;6.70;;
16450;SDS011;12243;42.708;23.310;2023-05-24T05:10:06;5.97;;;5.38;;
16450;SDS011;12243;42.708;23.310;2023-05-24T05:12:34;6.93;;;6.18;;
16450;SDS011;12243;42.708;23.310;2023-05-24T05:15:00;8.23;;;5.60;;
16450;SDS011;12243;42.708;23.310;2023-05-24T05:17:27;6.32;;;5.72;;
16450;SDS011;12243;42.708;23.310;2023-05-24T05:19:54;6.18;;;5.25;;
16450;SDS011;12243;42.708;23.310;2023-05-24T05:22:21;7.47;;;5.60;;
16450;SDS011;12243;42.708;23.310;2023-05-24T05:24:48;6.15;;;5.13;;
16450;SDS011;12243;42.708;23.310;2023-05-24T05:27:17;6.55;;;5.72;;
16450;SDS011;12243;42.708;23.310;2023-05-24T05:29:44;7.07;;;5.88;;
16450;SDS011;12243;42.708;23.310;2023-05-24T05:32:11;9.50;;;6.22;;
16450;SDS011;12243;42.708;23.310;2023-05-24T05:34:37;9.25;;;6.78;;
16450;SDS011;12243;42.708;23.310;2023-05-24T05:37:04;8.00;;;6.20;;
16450;SDS011;12243;42.708;23.310;2023-05-24T05:39:31;6.43;;;5.82;;
16450;SDS011;12243;42.708;23.310;2023-05-24T05:41:58;7.00;;;6.13;;
16450;SDS011;12243;42.708;23.310;2023-05-24T05:44:27;7.00;;;6.38;;
16450;SDS011;12243;42.708;23.310;2023-05-24T05:46:54;7.20;;;6.47;;
16450;SDS011;12243;42.708;23.310;2023-05-24T05:49:21;7.05;;;6.40;;
16450;SDS011;12243;42.708;23.310;2023-05-24T05:51:48;8.45;;;6.65;;
16450;SDS011;12243;42.708;23.310;2023-05-24T05:54:17;7.85;;;7.05;;
16450;SDS011;12243;42.708;23.310;2023-05-24T05:56:44;9.40;;;6.80;;
16450;SDS011;12243;42.708;23.310;2023-05-24T05:59:12;8.27;;;7.35;;
16450;SDS011;12243;42.708;23.310;2023-05-24T06:01:41;7.90;;;7.05;;
16450;SDS011;12243;42.708;23.310;2023-05-24T06:04:08;8.02;;;7.22;;
16450;SDS011;12243;42.708;23.310;2023-05-24T06:06:35;8.27;;;6.97;;
16450;SDS011;12243;42.708;23.310;2023-05-24T06:09:02;8.18;;;7.38;;
16450;SDS011;12243;42.708;23.310;2023-05-24T06:11:29;7.05;;;6.35;;
16450;SDS011;12243;42.708;23.310;2023-05-24T06:13:56;6.40;;;5.90;;
16450;SDS011;12243;42.708;23.310;2023-05-24T06:16:23;7.97;;;7.18;;
16450;SDS011;12243;42.708;23.310;2023-05-24T06:18:52;7.05;;;6.38;;
16450;SDS011;12243;42.708;23.310;2023-05-24T06:21:18;7.35;;;6.65;;
16450;SDS011;12243;42.708;23.310;2023-05-24T06:23:45;7.25;;;6.65;;
16450;SDS011;12243;42.708;23.310;2023-05-24T06:26:12;7.95;;;7.20;;
16450;SDS011;12243;42.708;23.310;2023-05-24T06:28:39;8.55;;;7.47;;
16450;SDS011;12243;42.708;23.310;2023-05-24T06:31:06;7.72;;;7.03;;
16450;SDS011;12243;42.708;23.310;2023-05-24T06:33:33;8.90;;;7.55;;
16450;SDS011;12243;42.708;23.310;2023-05-24T06:36:01;7.82;;;7.07;;
16450;SDS011;12243;42.708;23.310;2023-05-24T06:38:28;8.15;;;7.30;;
16450;SDS011;12243;42.708;23.310;2023-05-24T06:40:57;9.75;;;7.35;;
16450;SDS011;12243;42.708;23.310;2023-05-24T06:43:23;7.20;;;6.53;;
16450;SDS011;12243;42.708;23.310;2023-05-24T06:45:50;7.50;;;6.80;;
16450;SDS011;12243;42.708;23.310;2023-05-24T06:48:17;7.40;;;6.70;;
16450;SDS011;12243;42.708;23.310;2023-05-24T06:50:44;8.63;;;6.65;;
16450;SDS011;12243;42.708;23.310;2023-05-24T06:53:13;6.90;;;6.30;;
16450;SDS011;12243;42.708;23.310;2023-05-24T06:55:40;9.13;;;6.40;;
16450;SDS011;12243;42.708;23.310;2023-05-24T06:58:07;9.60;;;7.38;;
16450;SDS011;12243;42.708;23.310;2023-05-24T07:00:38;7.07;;;6.47;;
16450;SDS011;12243;42.708;23.310;2023-05-24T07:03:06;8.95;;;7.47;;
16450;SDS011;12243;42.708;23.310;2023-05-24T07:05:33;8.32;;;7.50;;
16450;SDS011;12243;42.708;23.310;2023-05-24T07:08:00;10.68;;;6.68;;
16450;SDS011;12243;42.708;23.310;2023-05-24T07:10:28;8.50;;;7.70;;
16450;SDS011;12243;42.708;23.310;2023-05-24T07:12:55;9.75;;;7.25;;
16450;SDS011;12243;42.708;23.310;2023-05-24T07:15:22;7.45;;;6.75;;
16450;SDS011;12243;42.708;23.310;2023-05-24T07:17:49;7.20;;;6.55;;
16450;SDS011;12243;42.708;23.310;2023-05-24T07:20:16;6.63;;;6.03;;
16450;SDS011;12243;42.708;23.310;2023-05-24T07:22:43;7.35;;;6.35;;
16450;SDS011;12243;42.708;23.310;2023-05-24T07:25:10;6.45;;;5.95;;
16450;SDS011;12243;42.708;23.310;2023-05-24T07:27:38;6.50;;;5.90;;
16450;SDS011;12243;42.708;23.310;2023-05-24T07:30:05;5.78;;;5.25;;
16450;SDS011;12243;42.708;23.310;2023-05-24T07:32:33;6.05;;;5.55;;
16450;SDS011;12243;42.708;23.310;2023-05-24T07:35:00;5.78;;;5.22;;
16450;SDS011;12243;42.708;23.310;2023-05-24T07:37:27;6.30;;;5.80;;
16450;SDS011;12243;42.708;23.310;2023-05-24T07:39:53;5.95;;;5.38;;
16450;SDS011;12243;42.708;23.310;2023-05-24T07:42:20;5.72;;;5.28;;
16450;SDS011;12243;42.708;23.310;2023-05-24T07:44:49;5.70;;;5.30;;
16450;SDS011;12243;42.708;23.310;2023-05-24T07:47:15;5.15;;;4.68;;
16450;SDS011;12243;42.708;23.310;2023-05-24T07:49:42;5.45;;;5.03;;
16450;SDS011;12243;42.708;23.310;2023-05-24T07:52:09;4.95;;;4.60;;
16450;SDS011;12243;42.708;23.310;2023-05-24T07:54:37;6.53;;;5.38;;
16450;SDS011;12243;42.708;23.310;2023-05-24T07:57:04;4.93;;;4.60;;
16450;SDS011;12243;42.708;23.310;2023-05-24T07:59:32;5.40;;;5.05;;
16450;SDS011;12243;42.708;23.310;2023-05-24T08:02:00;5.22;;;4.82;;
16450;SDS011;12243;42.708;23.310;2023-05-24T08:04:29;4.85;;;4.25;;
16450;SDS011;12243;42.708;23.310;2023-05-24T08:06:57;5.57;;;4.30;;
16450;SDS011;12243;42.708;23.310;2023-05-24T08:09:26;6.25;;;3.80;;
16450;SDS011;12243;42.708;23.310;2023-05-24T08:11:53;5.25;;;3.90;;
16450;SDS011;12243;42.708;23.310;2023-05-24T08:14:20;4.78;;;4.38;;
16450;SDS011;12243;42.708;23.310;2023-05-24T08:16:47;7.72;;;4.22;;
16450;SDS011;12243;42.708;23.310;2023-05-24T08:19:16;5.22;;;4.72;;
16450;SDS011;12243;42.708;23.310;2023-05-24T08:21:43;4.03;;;3.70;;
16450;SDS011;12243;42.708;23.310;2023-05-24T08:24:10;4.18;;;3.88;;
16450;SDS011;12243;42.708;23.310;2023-05-24T08:26:37;4.05;;;3.75;;
16450;SDS011;12243;42.708;23.310;2023-05-24T08:29:04;3.88;;;3.67;;
16450;SDS011;12243;42.708;23.310;2023-05-24T08:31:31;3.45;;;3.30;;
16450;SDS011;12243;42.708;23.310;2023-05-24T08:33:58;3.92;;;3.72;;
16450;SDS011;12243;42.708;23.310;2023-05-24T08:36:26;4.07;;;3.65;;
16450;SDS011;12243;42.708;23.310;2023-05-24T08:38:53;3.70;;;3.38;;
16450;SDS011;12243;42.708;23.310;2023-05-24T08:41:20;3.88;;;3.58;;
16450;SDS011;12243;42.708;23.310;2023-05-24T08:43:47;3.85;;;3.40;;
16450;SDS011;12243;42.708;23.310;2023-05-24T08:46:15;6.03;;;3.65;;
16450;SDS011;12243;42.708;23.310;2023-05-24T08:48:43;3.50;;;3.30;;
16450;SDS011;12243;42.708;23.310;2023-05-24T08:51:12;3.00;;;2.90;;
16450;SDS011;12243;42.708;23.310;2023-05-24T08:53:41;3.38;;;3.17;;
16450;SDS011;12243;42.708;23.310;2023-05-24T08:56:13;2.70;;;2.60;;
16450;SDS011;12243;42.708;23.310;2023-05-24T08:58:41;2.80;;;2.70;;
16450;SDS011;12243;42.708;23.310;2023-05-24T09:01:10;3.00;;;2.80;;
16450;SDS011;12243;42.708;23.310;2023-05-24T09:03:38;3.33;;;2.92;;
16450;SDS011;12243;42.708;23.310;2023-05-24T09:06:06;2.80;;;2.70;;
16450;SDS011;12243;42.708;23.310;2023-05-24T09:08:34;5.07;;;3.47;;
16450;SDS011;12243;42.708;23.310;2023-05-24T09:11:04;4.13;;;3.50;;
16450;SDS011;12243;42.708;23.310;2023-05-24T09:13:33;3.78;;;3.22;;
16450;SDS011;12243;42.708;23.310;2023-05-24T09:16:00;3.70;;;3.45;;
16450;SDS011;12243;42.708;23.310;2023-05-24T09:18:28;3.58;;;3.25;;
16450;SDS011;12243;42.708;23.310;2023-05-24T09:20:54;3.40;;;3.20;;
16450;SDS011;12243;42.708;23.310;2023-05-24T09:23:21;3.75;;;3.38;;
16450;SDS011;12243;42.708;23.310;2023-05-24T09:25:50;3.58;;;3.38;;
16450;SDS011;12243;42.708;23.310;2023-05-24T09:28:19;3.28;;;3.08;;
16450;SDS011;12243;42.708;23.310;2023-05-24T09:30:56;2.80;;;2.65;;
16450;SDS011;12243;42.708;23.310;2023-05-24T09:33:27;2.58;;;2.47;;
16450;SDS011;12243;42.708;23.310;2023-05-24T09:35:55;2.83;;;2.72;;
16450;SDS011;12243;42.708;23.310;2023-05-24T09:38:23;2.88;;;2.67;;
16450;SDS011;12243;42.708;23.310;2023-05-24T09:40:57;2.85;;;2.65;;
16450;SDS011;12243;42.708;23.310;2023-05-24T09:43:26;3.25;;;3.05;;
16450;SDS011;12243;42.708;23.310;2023-05-24T09:45:55;3.00;;;2.80;;
16450;SDS011;12243;42.708;23.310;2023-05-24T09:48:24;2.92;;;2.65;;
16450;SDS011;12243;42.708;23.310;2023-05-24T09:50:58;2.47;;;2.38;;
16450;SDS011;12243;42.708;23.310;2023-05-24T09:53:28;2.88;;;2.78;;
16450;SDS011;12243;42.708;23.310;2023-05-24T09:55:56;3.00;;;2.80;;
16450;SDS011;12243;42.708;23.310;2023-05-24T09:58:24;3.50;;;3.30;;
16450;SDS011;12243;42.708;23.310;2023-05-24T10:01:04;2.83;;;2.63;;
16450;SDS011;12243;42.708;23.310;2023-05-24T10:03:32;3.25;;;2.92;;
16450;SDS011;12243;42.708;23.310;2023-05-24T10:06:01;2.72;;;2.60;;
16450;SDS011;12243;42.708;23.310;2023-05-24T10:08:30;3.25;;;3.05;;
16450;SDS011;12243;42.708;23.310;2023-05-24T10:10:59;2.78;;;2.67;;
16450;SDS011;12243;42.708;23.310;2023-05-24T10:13:28;2.63;;;2.42;;
16450;SDS011;12243;42.708;23.310;2023-05-24T10:15:57;2.47;;;2.35;;
16450;SDS011;12243;42.708;23.310;2023-05-24T10:18:24;2.80;;;2.60;;
16450;SDS011;12243;42.708;23.310;2023-05-24T10:20:51;2.78;;;2.67;;
16450;SDS011;12243;42.708;23.310;2023-05-24T10:23:21;3.17;;;3.05;;
16450;SDS011;12243;42.708;23.310;2023-05-24T10:25:53;3.42;;;3.22;;
16450;SDS011;12243;42.708;23.310;2023-05-24T10:28:25;3.70;;;3.50;;
16450;SDS011;12243;42.708;23.310;2023-05-24T10:30:57;3.10;;;3.00;;
16450;SDS011;12243;42.708;23.310;2023-05-24T10:33:28;2.88;;;2.67;;
16450;SDS011;12243;42.708;23.310;2023-05-24T10:35:57;4.32;;;4.03;;
16450;SDS011;12243;42.708;23.310;2023-05-24T10:38:25;3.53;;;2.80;;
16450;SDS011;12243;42.708;23.310;2023-05-24T10:40:51;2.83;;;2.72;;
16450;SDS011;12243;42.708;23.310;2023-05-24T10:43:18;3.97;;;3.50;;
16450;SDS011;12243;42.708;23.310;2023-05-24T10:45:47;3.13;;;2.83;;
16450;SDS011;12243;42.708;23.310;2023-05-24T10:48:34;3.00;;;2.83;;
16450;SDS011;12243;42.708;23.310;2023-05-24T10:54:14;2.70;;;2.60;;
16450;SDS011;12243;42.708;23.310;2023-05-24T10:56:45;5.93;;;3.63;;
16450;SDS011;12243;42.708;23.310;2023-05-24T10:59:23;4.55;;;4.15;;
16450;SDS011;12243;42.708;23.310;2023-05-24T11:01:55;2.70;;;2.60;;
16450;SDS011;12243;42.708;23.310;2023-05-24T11:04:24;2.67;;;2.58;;
16450;SDS011;12243;42.708;23.310;2023-05-24T11:06:55;2.80;;;2.60;;
16450;SDS011;12243;42.708;23.310;2023-05-24T11:09:24;2.80;;;2.60;;
16450;SDS011;12243;42.708;23.310;2023-05-24T11:11:54;3.00;;;2.90;;
16450;SDS011;12243;42.708;23.310;2023-05-24T11:14:23;5.88;;;3.25;;
16450;SDS011;12243;42.708;23.310;2023-05-24T11:16:52;2.92;;;2.83;;
16450;SDS011;12243;42.708;23.310;2023-05-24T11:19:20;2.97;;;2.78;;
16450;SDS011;12243;42.708;23.310;2023-05-24T11:21:51;3.88;;;3.58;;
16450;SDS011;12243;42.708;23.310;2023-05-24T11:24:19;3.38;;;3.13;;
16450;SDS011;12243;42.708;23.310;2023-05-24T11:26:48;3.08;;;2.88;;
16450;SDS011;12243;42.708;23.310;2023-05-24T11:29:15;2.72;;;2.60;;
16450;SDS011;12243;42.708;23.310;2023-05-24T11:31:48;3.72;;;3.35;;
16450;SDS011;12243;42.708;23.310;2023-05-24T11:34:15;3.28;;;3.00;;
16450;SDS011;12243;42.708;23.310;2023-05-24T11:36:43;3.38;;;3.17;;
16450;SDS011;12243;42.708;23.310;2023-05-24T11:39:11;2.88;;;2.78;;
16450;SDS011;12243;42.708;23.310;2023-05-24T11:41:39;3.33;;;3.03;;
16450;SDS011;12243;42.708;23.310;2023-05-24T11:44:07;2.83;;;2.65;;
16450;SDS011;12243;42.708;23.310;2023-05-24T11:46:34;2.83;;;2.63;;
16450;SDS011;12243;42.708;23.310;2023-05-24T11:49:03;3.05;;;2.92;;
16450;SDS011;12243;42.708;23.310;2023-05-24T11:51:31;3.97;;;2.90;;
16450;SDS011;12243;42.708;23.310;2023-05-24T11:53:59;3.88;;;3.22;;
16450;SDS011;12243;42.708;23.310;2023-05-24T11:56:29;3.10;;;2.85;;
16450;SDS011;12243;42.708;23.310;2023-05-24T11:59:08;2.80;;;2.65;;
16450;SDS011;12243;42.708;23.310;2023-05-24T12:01:39;2.83;;;2.72;;
16450;SDS011;12243;42.708;23.310;2023-05-24T12:04:06;2.92;;;2.72;;
16450;SDS011;12243;42.708;23.310;2023-05-24T12:06:34;3.08;;;2.97;;
16450;SDS011;12243;42.708;23.310;2023-05-24T12:09:03;3.17;;;3.00;;
16450;SDS011;12243;42.708;23.310;2023-05-24T12:11:35;2.90;;;2.70;;
16450;SDS011;12243;42.708;23.310;2023-05-24T12:14:05;3.03;;;2.70;;
16450;SDS011;12243;42.708;23.310;2023-05-24T12:16:32;3.05;;;2.83;;
16450;SDS011;12243;42.708;23.310;2023-05-24T12:19:01;2.97;;;2.83;;
16450;SDS011;12243;42.708;23.310;2023-05-24T12:21:31;3.15;;;2.95;;
16450;SDS011;12243;42.708;23.310;2023-05-24T12:24:08;3.22;;;2.88;;
16450;SDS011;12243;42.708;23.310;2023-05-24T12:26:39;2.72;;;2.63;;
16450;SDS011;12243;42.708;23.310;2023-05-24T12:29:07;3.35;;;3.08;;
16450;SDS011;12243;42.708;23.310;2023-05-24T12:31:35;3.28;;;3.00;;
16450;SDS011;12243;42.708;23.310;2023-05-24T12:34:03;2.63;;;2.40;;
16450;SDS011;12243;42.708;23.310;2023-05-24T12:36:31;3.05;;;2.70;;
16450;SDS011;12243;42.708;23.310;2023-05-24T12:39:04;2.45;;;2.35;;
16450;SDS011;12243;42.708;23.310;2023-05-24T12:41:44;2.53;;;2.42;;
16450;SDS011;12243;42.708;23.310;2023-05-24T12:44:11;2.92;;;2.72;;
16450;SDS011;12243;42.708;23.310;2023-05-24T12:46:37;2.80;;;2.70;;
16450;SDS011;12243;42.708;23.310;2023-05-24T12:49:04;2.75;;;2.65;;
16450;SDS011;12243;42.708;23.310;2023-05-24T12:51:31;3.47;;;2.90;;
16450;SDS011;12243;42.708;23.310;2023-05-24T12:53:58;2.85;;;2.65;;
16450;SDS011;12243;42.708;23.310;2023-05-24T12:56:29;3.03;;;2.85;;
16450;SDS011;12243;42.708;23.310;2023-05-24T12:58:57;3.00;;;2.55;;
16450;SDS011;12243;42.708;23.310;2023-05-24T13:01:24;2.80;;;2.70;;
16450;SDS011;12243;42.708;23.310;2023-05-24T13:03:51;3.38;;;3.00;;
16450;SDS011;12243;42.708;23.310;2023-05-24T13:06:19;2.50;;;2.35;;
16450;SDS011;12243;42.708;23.310;2023-05-24T13:08:45;3.10;;;2.72;;
16450;SDS011;12243;42.708;23.310;2023-05-24T13:11:12;3.17;;;2.90;;
16450;SDS011;12243;42.708;23.310;2023-05-24T13:13:40;3.20;;;3.00;;
16450;SDS011;12243;42.708;23.310;2023-05-24T13:16:10;2.92;;;2.83;;
16450;SDS011;12243;42.708;23.310;2023-05-24T13:18:37;2.72;;;2.63;;
16450;SDS011;12243;42.708;23.310;2023-05-24T13:21:05;2.75;;;2.65;;
16450;SDS011;12243;42.708;23.310;2023-05-24T13:23:33;2.80;;;2.70;;
16450;SDS011;12243;42.708;23.310;2023-05-24T13:26:01;3.53;;;3.33;;
16450;SDS011;12243;42.708;23.310;2023-05-24T13:28:29;2.83;;;2.63;;
16450;SDS011;12243;42.708;23.310;2023-05-24T13:30:56;3.30;;;3.10;;
16450;SDS011;12243;42.708;23.310;2023-05-24T13:33:24;3.65;;;3.35;;
16450;SDS011;12243;42.708;23.310;2023-05-24T13:35:51;3.40;;;3.03;;
16450;SDS011;12243;42.708;23.310;2023-05-24T13:38:19;3.08;;;2.88;;
16450;SDS011;12243;42.708;23.310;2023-05-24T13:40:47;3.28;;;3.00;;
16450;SDS011;12243;42.708;23.310;2023-05-24T13:43:15;4.38;;;3.25;;
16450;SDS011;12243;42.708;23.310;2023-05-24T13:45:43;3.05;;;2.95;;
16450;SDS011;12243;42.708;23.310;2023-05-24T13:48:10;3.50;;;2.65;;
16450;SDS011;12243;42.708;23.310;2023-05-24T13:50:38;3.20;;;3.00;;
16450;SDS011;12243;42.708;23.310;2023-05-24T13:53:05;5.25;;;3.15;;
16450;SDS011;12243;42.708;23.310;2023-05-24T13:55:33;3.42;;;3.17;;
16450;SDS011;12243;42.708;23.310;2023-05-24T13:58:01;3.97;;;3.65;;
16450;SDS011;12243;42.708;23.310;2023-05-24T14:00:29;3.53;;;3.25;;
16450;SDS011;12243;42.708;23.310;2023-05-24T14:02:57;3.05;;;2.95;;
16450;SDS011;12243;42.708;23.310;2023-05-24T14:05:25;3.17;;;2.97;;
16450;SDS011;12243;42.708;23.310;2023-05-24T14:07:55;5.45;;;3.08;;
16450;SDS011;12243;42.708;23.310;2023-05-24T14:10:24;3.65;;;3.35;;
16450;SDS011;12243;42.708;23.310;2023-05-24T14:12:51;5.20;;;3.47;;
16450;SDS011;12243;42.708;23.310;2023-05-24T14:15:18;3.17;;;3.08;;
16450;SDS011;12243;42.708;23.310;2023-05-24T14:17:45;5.72;;;4.18;;
16450;SDS011;12243;42.708;23.310;2023-05-24T14:20:11;4.40;;;4.00;;
16450;SDS011;12243;42.708;23.310;2023-05-24T14:22:38;3.10;;;2.90;;
16450;SDS011;12243;42.708;23.310;2023-05-24T14:25:07;2.85;;;2.75;;
16450;SDS011;12243;42.708;23.310;2023-05-24T14:27:35;3.38;;;3.17;;
16450;SDS011;12243;42.708;23.310;2023-05-24T14:30:02;3.10;;;2.90;;
16450;SDS011;12243;42.708;23.310;2023-05-24T14:32:30;3.58;;;3.20;;
16450;SDS011;12243;42.708;23.310;2023-05-24T14:34:57;3.13;;;3.00;;
16450;SDS011;12243;42.708;23.310;2023-05-24T14:37:24;3.35;;;2.95;;
16450;SDS011;12243;42.708;23.310;2023-05-24T14:39:51;4.05;;;3.80;;
16450;SDS011;12243;42.708;23.310;2023-05-24T14:42:19;3.50;;;3.30;;
16450;SDS011;12243;42.708;23.310;2023-05-24T14:44:46;3.33;;;3.13;;